KNEW/NEW METAR and TAF weather

Enter ICAO airport designator
Station Type Date Time Source
KNEW METAR 2020/09/23 02:53 UTC NOAA

KNEW 230253Z AUTO 08014KT 5SM -RA SCT012 BKN019 OVC035 24/21 A2999 RMK AO2 RAB37 CIG 015V025 SLP148 P0000 60000 T02390211 52007


Station Type Date Time Source
KNEW Decoded METAR 2020/09/23 02:53 UTC NOAA

NEW ORLEANS LAKEFRONT AIRPORT , LA, United States (KNEW) 30-03N 90-02W 3M
Sep 22, 2020 - 10:53 PM EDT / 2020.09.23 0253 UTC
Wind: from the E (080 degrees) at 16 MPH (14 KT):0
Visibility: 5 mile(s):0
Sky conditions: overcast
Weather: light rain
Precipitation last hour: A trace
Temperature: 75.0 F (23.9 C)
Dew Point: 70.0 F (21.1 C)
Relative Humidity: 84%
Pressure (altimeter): 29.99 in. Hg (1015 hPa)
Pressure tendency: 0.02 inches (0.7 hPa) higher than three hours ago
ob: KNEW 230253Z AUTO 08014KT 5SM -RA SCT012 BKN019 OVC035 24/21 A2999 RMK AO2 RAB37 CIG 015V025 SLP148 P0000 60000 T02390211 52007
cycle: 3

Station Type Date Time Source
KNEW TAF 2020/09/22 18:27 UTC NOAA

TAF KNEW 221724Z 2218/2318 08018KT 4SM -RA BKN012 OVC030
FM230000 09014G23KT P6SM VCSH OVC015
FM230400 10011G22KT P6SM VCSH OVC035
FM230800 10010G22KT P6SM VCSH BKN030
FM231400 11012G24KT P6SM SHRA OVC015

Example: see airport list